Flight Track Log - Related Links

Times and Time Zones

All times are in EDT time to prevent confusion due to time zone crossing. See the AAL1459 flight status page for this flight to view local times or setup timezone preferences in your user account.

Time Position Orientation Groundspeed Altitude Reporting Facility
EDT Latitude Longitude Course Direction KTS MPH feet Rate Location/Type
Sun 06:21:36 PM 42.0344 -87.9792 270° West 197 227 36,000  Level Chicago Center
Sun 06:23:00 PM 42.0474 -88.1948 270° West  Level Estimated
Sun 06:23:40 PM 42.1164 -88.1222 270° West 289 333 7,100  Level Chicago Center
Sun 06:24:42 PM 42.1472 -88.2497 288° West 300 345 10,300 2,758 Climbing Chicago Center
Sun 06:25:00 PM 41.9668 -88.6773 270° West  Level FlightAware Approximate
Sun 06:25:44 PM 42.1464 -88.3589 269° West 302 348 12,800  Level Chicago Center
Sun 06:26:00 PM 41.9668 -88.8328 270° West  Level FlightAware Approximate
Sun 06:26:46 PM 42.1133 -88.4700 248° West 315 362 15,300  Level Chicago Center
Sun 06:27:48 PM 42.1011 -88.6053 263° West 369 425 16,500 1,548 Climbing Chicago Center
Sun 06:28:50 PM 42.1003 -88.7600 270° West 410 472 18,500 2,129 Climbing Chicago Center
Sun 06:29:52 PM 42.0975 -88.9408 269° West 424 488 20,900 2,129 Climbing Chicago Center
Sun 06:30:54 PM 42.0942 -89.1061 268° West 437 503 22,900 1,824 Climbing Chicago Center
Sun 06:31:57 PM 42.0928 -89.2778 269° West 451 519 24,700 1,920 Climbing Chicago Center
Sun 06:32:59 PM 42.0881 -89.4775 268° West 455 524 26,900 1,790 Climbing Chicago Center
Sun 06:34:01 PM 42.0869 -89.6492 270° West 459 528 28,400 1,500 Climbing Chicago Center
Sun 06:35:03 PM 42.0856 -89.8228 269° West 461 531 30,000 1,694 Climbing Chicago Center
Sun 06:36:05 PM 42.0883 -90.0033 271° West 457 526 31,900 1,645 Climbing Chicago Center
Sun 06:37:07 PM 42.0961 -90.1692 274° West 450 518 33,400 1,452 Climbing Chicago Center
Sun 06:38:09 PM 42.1069 -90.3339 275° West 444 511 34,900 1,258 Climbing Chicago Center
Sun 06:39:11 PM 42.1206 -90.4967 276° West 443 510 36,000 532 Climbing Chicago Center
Sun 06:40:13 PM 42.1336 -90.6597 276° West 441 507 36,000  Level Chicago Center
Sun 06:41:15 PM 42.1489 -90.8608 276° West 451 519 36,000  Level Chicago Center
Sun 06:42:17 PM 42.1606 -91.0264 275° West 449 517 36,000  Level Chicago Center
Sun 06:43:19 PM 42.1719 -91.1953 275° West 452 520 36,000  Level Chicago Center
Sun 06:44:21 PM 42.1844 -91.3631 276° West 453 521 36,000 -48 Level Chicago Center
Sun 06:45:23 PM 42.1969 -91.5306 276° West 452 520 35,900  Descending Chicago Center
Sun 06:47:00 PM 42.2153 -91.8022 275° West 453 521 36,000  Climbing Minneapolis Center
Sun 06:47:28 PM 42.2217 -91.9003 275° West 452 520 35,900  Descending Chicago Center
Sun 06:48:30 PM 42.2322 -92.0697 275° West 454 522 36,000 63 Climbing Chicago Center
Sun 06:49:04 PM 42.2403 -92.1750 276° West 456 525 36,000 -63 Level Minneapolis Center
Sun 06:50:06 PM 42.2503 -92.3458 275° West 458 527 35,900  Descending Minneapolis Center
Sun 06:51:08 PM 42.2617 -92.5186 275° West 462 532 36,000  Climbing Minneapolis Center
Sun 06:52:10 PM 42.2714 -92.6906 274° West 463 533 35,900 -48 Descending Minneapolis Center
Sun 06:53:12 PM 42.2808 -92.8586 274° West 455 524 35,900 48 Level Minneapolis Center
Sun 06:54:14 PM 42.2928 -93.0617 275° West 456 525 36,000  Climbing Minneapolis Center
Sun 06:55:16 PM 42.3031 -93.2347 275° West 465 535 35,900 -48 Descending Minneapolis Center
Sun 06:56:18 PM 42.3117 -93.4056 274° West 464 534 35,900  Level Minneapolis Center
Sun 06:57:20 PM 42.3208 -93.5761 274° West 460 529 35,900  Level Minneapolis Center
Sun 06:58:23 PM 42.3303 -93.7475 274° West 461 531 35,900  Level Minneapolis Center
Sun 06:59:25 PM 42.3389 -93.9511 273° West 458 527 35,900  Level Minneapolis Center
Sun 07:00:27 PM 42.3486 -94.1208 274° West 459 528 35,900  Level Minneapolis Center
Sun 07:01:29 PM 42.3567 -94.3053 273° West 453 521 35,900 32 Level Minneapolis Center
Sun 07:03:33 PM 42.3722 -94.6417 274° West 449 517 36,000  Climbing Minneapolis Center
Sun 07:04:35 PM 42.3794 -94.8089 273° West 447 514 35,900 -32 Descending Minneapolis Center
Sun 07:06:39 PM 42.3939 -95.1783 273° West 449 517 35,900  Level Minneapolis Center
Sun 07:07:53 PM 42.4003 -95.3789 273° West 447 514 35,900  Level Minneapolis Center
Sun 07:08:55 PM 42.4056 -95.5478 272° West 450 518 35,900  Level Minneapolis Center
Sun 07:09:57 PM 42.4111 -95.7158 273° West 449 517 35,900  Level Minneapolis Center
Sun 07:10:59 PM 42.4164 -95.8831 273° West 447 514 35,900  Level Minneapolis Center
Sun 07:12:01 PM 42.4219 -96.0506 273° West 448 516 35,900  Level Minneapolis Center
Sun 07:13:03 PM 42.4275 -96.2508 272° West 447 514 35,900  Level Minneapolis Center
Sun 07:14:05 PM 42.4322 -96.4192 272° West 448 516 35,900  Level Minneapolis Center
Sun 07:15:07 PM 42.4372 -96.5853 272° West 445 512 35,900  Level Minneapolis Center
Sun 07:16:09 PM 42.4411 -96.7508 272° West 444 511 35,900  Level Minneapolis Center
Sun 07:17:11 PM 42.4444 -96.9178 272° West 445 512 35,900  Level Minneapolis Center
Sun 07:19:00 PM 42.4504 -97.2036 271° West  Level FlightAware Approximate
Sun 07:19:15 PM 42.4514 -97.2822 271° West 443 510 35,900  Level Minneapolis Center
Sun 07:20:17 PM 42.4553 -97.4481 272° West 444 511 35,900  Level Minneapolis Center
Sun 07:21:19 PM 42.4583 -97.6136 271° West 441 507 35,900  Level Minneapolis Center
Sun 07:22:21 PM 42.4594 -97.7769 271° West 438 504 35,900  Level Minneapolis Center
Sun 07:23:22 PM 42.4636 -97.9497 272° West 432 497 35,900  Level Minneapolis Center
Sun 07:24:24 PM 42.4644 -98.1117 270° West 431 496 35,900  Level Minneapolis Center
Sun 07:25:26 PM 42.4664 -98.2725 271° West 429 494 35,900 48 Level Minneapolis Center
Sun 07:26:28 PM 42.4689 -98.4325 271° West 427 491 36,000  Climbing Minneapolis Center
Sun 07:27:30 PM 42.4703 -98.6250 271° West 427 491 35,900 -48 Descending Minneapolis Center
Sun 07:28:32 PM 42.4725 -98.7842 271° West 425 489 35,900 49 Level Minneapolis Center
Sun 07:29:33 PM 42.4769 -98.9403 272° West 419 482 36,000  Climbing Minneapolis Center
Sun 07:30:35 PM 42.4800 -99.0989 272° West 421 484 35,900 -48 Descending Minneapolis Center
Sun 07:31:37 PM 42.4831 -99.2564 272° West 420 483 35,900  Level Minneapolis Center
Sun 07:33:02 PM 42.4858 -99.4769 271° West 419 482 35,900  Level Denver Center
Sun 07:33:53 PM 42.4881 -99.6319 271° West 416 479 35,900 54 Level Minneapolis Center
Sun 07:34:54 PM 42.4906 -99.7872 271° West 415 478 36,000  Climbing Minneapolis Center
Sun 07:35:56 PM 42.4922 -99.9436 271° West 416 479 35,900  Descending Minneapolis Center
Sun 07:36:58 PM 42.4939 -100.1028 271° West 419 482 36,000 49 Climbing Minneapolis Center
Sun 07:37:59 PM 42.4961 -100.2572 271° West 416 479 36,000 -44 Level Minneapolis Center
Sun 07:39:14 PM 42.4983 -100.4578 271° West 417 480 35,900  Descending Denver Center
Sun 07:40:16 PM 42.4992 -100.6081 270° West 417 480 36,000  Climbing Denver Center
Sun 07:41:18 PM 42.5000 -100.7842 270° West 419 482 35,900 -48 Descending Denver Center
Sun 07:42:20 PM 42.5003 -100.9311 270° West 412 474 35,900 48 Level Denver Center
Sun 07:43:22 PM 42.5011 -101.1036 270° West 411 473 36,000 49 Climbing Denver Center
Sun 07:44:23 PM 42.5022 -101.2486 271° West 406 467 36,000  Level Denver Center
Sun 07:45:25 PM 42.5017 -101.4139 270° West 396 456 36,000  Level Denver Center
Sun 07:46:27 PM 42.5019 -101.5567 270° West 396 456 36,000  Level Denver Center
Sun 07:47:29 PM 42.5014 -101.7211 270° West 394 453 36,000  Level Denver Center
Sun 07:48:31 PM 42.5000 -101.8572 269° West 394 453 36,000  Level Denver Center
Sun 07:49:33 PM 42.5008 -102.0217 270° West 392 451 36,000  Level Denver Center
Sun 07:50:35 PM 42.5036 -102.1628 272° West 393 452 36,000  Level Denver Center
Sun 07:51:37 PM 42.5050 -102.3264 271° West 390 449 36,000  Level Denver Center
Sun 07:52:39 PM 42.5078 -102.4664 272° West 388 447 36,000  Level Denver Center
Sun 07:53:41 PM 42.5089 -102.6300 271° West 389 448 36,000  Level Denver Center
Sun 07:54:43 PM 42.5111 -102.7681 271° West 383 441 36,000  Level Denver Center
Sun 07:55:45 PM 42.5117 -102.9281 270° West 381 438 36,000  Level Denver Center
Sun 07:56:47 PM 42.5128 -103.0664 271° West 383 441 36,000  Level Denver Center
Sun 07:57:49 PM 42.5139 -103.2250 271° West 377 434 36,000  Level Denver Center
Sun 07:58:51 PM 42.5153 -103.3611 271° West 377 434 36,000  Level Denver Center
Sun 07:59:53 PM 42.5161 -103.5225 270° West 382 440 36,000  Level Denver Center
Sun 08:00:55 PM 42.5169 -103.6592 271° West 379 436 36,000  Level Denver Center
Sun 08:01:57 PM 42.5172 -103.7967 270° West 381 438 36,000  Level Denver Center
Sun 08:02:59 PM 42.5169 -103.9606 270° West 388 447 36,000  Level Denver Center
Sun 08:04:01 PM 42.5167 -104.0983 270° West 383 441 36,000  Level Denver Center
Sun 08:05:03 PM 42.5167 -104.2617 270° West 387 445 36,000  Level Denver Center
Sun 08:06:05 PM 42.5161 -104.4011 270° West 383 441 36,000  Level Denver Center
Sun 08:07:07 PM 42.5144 -104.5669 269° West 386 444 36,000  Level Denver Center
Sun 08:08:09 PM 42.5139 -104.7125 270° West 392 451 36,000  Level Denver Center
Sun 08:09:10 PM 42.5139 -104.8525 270° West 388 447 36,000  Level Denver Center
Sun 08:10:12 PM 42.5131 -105.0158 270° West 387 445 36,000  Level Denver Center
Sun 08:11:14 PM 42.5114 -105.1533 269° West 381 438 36,000  Level Denver Center
Sun 08:12:16 PM 42.5100 -105.3178 269° West 390 449 36,000  Level Denver Center
Sun 08:13:18 PM 42.5078 -105.4572 269° West 386 444 36,000  Level Denver Center
Sun 08:14:20 PM 42.5061 -105.5986 269° West 391 450 36,000  Level Denver Center
Sun 08:15:22 PM 42.5031 -105.7647 269° West 395 455 36,000  Level Denver Center
Sun 08:16:23 PM 42.5008 -105.9081 269° West 399 459 36,000  Level Denver Center
Sun 08:17:25 PM 42.4958 -106.0744 268° West 397 457 36,000  Level Denver Center
Sun 08:18:27 PM 42.4867 -106.2178 265° West 399 459 36,000  Level Denver Center
Sun 08:19:29 PM 42.4764 -106.3856 265° West 400 460 36,000  Level Denver Center
Sun 08:20:31 PM 42.4686 -106.5286 266° West 397 457 36,000  Level Denver Center
Sun 08:21:32 PM 42.4581 -106.6956 265° West 399 459 36,000  Level Denver Center
Sun 08:22:34 PM 42.4489 -106.8375 265° West 395 455 36,000  Level Denver Center
Sun 08:23:36 PM 42.4394 -106.9900 265° West 398 458 36,000  Level Denver Center
Sun 08:24:38 PM 42.4297 -107.1311 265° West 395 455 36,000  Level Denver Center
Sun 08:25:40 PM 42.4189 -107.2950 265° West 393 452 36,000  Level Denver Center
Sun 08:26:42 PM 42.4100 -107.4358 265° West 393 452 36,000  Level Denver Center
Sun 08:27:02 PM 42.4050 -107.4836 262° West 394 453 36,000  Level Salt Lake Center
Sun 08:28:03 PM 42.3942 -107.6494 265° West 397 457 36,000  Level Salt Lake Center
Sun 08:29:05 PM 42.3842 -107.7911 265° West 398 458 36,000  Level Salt Lake Center
Sun 08:30:07 PM 42.3722 -107.9569 264° West 399 459 36,000  Level Salt Lake Center
Sun 08:31:08 PM 42.3614 -108.1017 264° West 404 465 36,000  Level Salt Lake Center
Sun 08:32:10 PM 42.3489 -108.2694 264° West 403 464 36,000  Level Salt Lake Center
Sun 08:33:11 PM 42.3369 -108.4119 264° West 401 461 36,000  Level Salt Lake Center
Sun 08:34:13 PM 42.3253 -108.5781 265° West 400 460 36,000  Level Salt Lake Center
Sun 08:35:15 PM 42.3136 -108.7192 264° West 397 457 36,000  Level Salt Lake Center
Sun 08:36:16 PM 42.3017 -108.8600 264° West 395 455 36,000  Level Salt Lake Center
Sun 08:37:18 PM 42.2878 -109.0242 264° West 395 455 36,000  Level Salt Lake Center
Sun 08:38:19 PM 42.2758 -109.1628 263° West 391 450 36,000  Level Salt Lake Center
Sun 08:39:21 PM 42.2614 -109.3275 263° West 396 456 36,000  Level Salt Lake Center
Sun 08:40:22 PM 42.2497 -109.4692 264° West 398 458 36,000  Level Salt Lake Center
Sun 08:41:24 PM 42.2347 -109.6347 263° West 399 459 36,000  Level Salt Lake Center
Sun 08:42:26 PM 42.2231 -109.7764 264° West 399 459 36,000  Level Salt Lake Center
Sun 08:43:27 PM 42.2075 -109.9397 263° West 396 456 36,000  Level Salt Lake Center
Sun 08:44:29 PM 42.1936 -110.0806 262° West 397 457 36,000  Level Salt Lake Center
Sun 08:45:30 PM 42.1819 -110.2242 264° West 401 461 36,000  Level Salt Lake Center
Sun 08:46:32 PM 42.1658 -110.3953 263° West 411 473 36,000  Level Salt Lake Center
Sun 08:47:33 PM 42.1511 -110.5394 262° West 408 470 36,000  Level Salt Lake Center
Sun 08:48:35 PM 42.1350 -110.7044 263° West 401 461 36,000  Level Salt Lake Center
Sun 08:49:36 PM 42.1208 -110.8456 262° West 397 457 36,000  Level Salt Lake Center
Sun 08:50:38 PM 42.1047 -110.9997 262° West 396 456 36,000  Level Salt Lake Center
Sun 08:51:39 PM 42.0897 -111.1428 262° West 390 449 36,000  Level Salt Lake Center
Sun 08:52:41 PM 42.0756 -111.2869 263° West 391 450 36,000  Level Salt Lake Center
Sun 08:53:42 PM 42.0608 -111.4319 262° West 393 452 36,000  Level Salt Lake Center
Sun 08:54:44 PM 42.0453 -111.5769 262° West 393 452 36,000  Level Salt Lake Center
Sun 08:55:45 PM 42.0267 -111.7511 262° West 394 453 36,000  Level Salt Lake Center
Sun 08:56:47 PM 42.0106 -111.8967 262° West 396 456 36,000 -49 Level Salt Lake Center
Sun 08:57:48 PM 41.9903 -112.0436 260° West 401 461 35,900  Descending Salt Lake Center
Sun 08:58:50 PM 41.9572 -112.1808 252° West 393 452 36,000 49 Climbing Salt Lake Center
Sun 08:59:51 PM 41.9253 -112.3208 253° West 393 452 36,000  Level Salt Lake Center
Sun 09:00:54 PM 41.8917 -112.4614 252° West 395 455 36,000  Level Salt Lake Center
Sun 09:01:55 PM 41.8578 -112.6025 252° West 399 459 36,000  Level Salt Lake Center
Sun 09:02:57 PM 41.8192 -112.7683 253° West 393 452 36,000  Level Salt Lake Center
Sun 09:03:58 PM 41.7853 -112.9078 252° West 394 453 36,000  Level Salt Lake Center
Sun 09:04:59 PM 41.7519 -113.0475 252° West 395 455 36,000  Level Salt Lake Center
Sun 09:06:01 PM 41.7200 -113.1878 253° West 397 457 36,000  Level Salt Lake Center
Sun 09:07:02 PM 41.6864 -113.3297 252° West 403 464 36,000  Level Salt Lake Center
Sun 09:08:04 PM 41.6503 -113.4747 252° West 412 474 36,000  Level Salt Lake Center
Sun 09:09:05 PM 41.6147 -113.6186 252° West 410 472 36,000  Level Salt Lake Center
Sun 09:10:06 PM 41.5725 -113.7914 252° West 409 471 36,000  Level Salt Lake Center
Sun 09:11:08 PM 41.5369 -113.9344 252° West 408 470 36,000  Level Salt Lake Center
Sun 09:12:09 PM 41.5006 -114.0792 251° West 412 474 36,000  Level Salt Lake Center
Sun 09:13:11 PM 41.4647 -114.2228 252° West 410 472 36,000  Level Salt Lake Center
Sun 09:14:12 PM 41.4281 -114.3658 251° West 408 470 36,000  Level Salt Lake Center
Sun 09:15:13 PM 41.3928 -114.5078 252° West 406 467 36,000  Level Salt Lake Center
Sun 09:16:15 PM 41.3561 -114.6494 251° West 406 467 36,000  Level Salt Lake Center
Sun 09:17:16 PM 41.3133 -114.7883 248° West 406 467 36,000  Level Salt Lake Center
Sun 09:18:18 PM 41.2672 -114.9472 249° West 404 465 36,000  Level Salt Lake Center
Sun 09:19:19 PM 41.2286 -115.0803 249° West 403 464 36,000  Level Salt Lake Center
Sun 09:20:20 PM 41.1819 -115.2336 248° West 401 461 36,000  Level Salt Lake Center
Sun 09:21:22 PM 41.1433 -115.3661 249° West 401 461 36,000  Level Salt Lake Center
Sun 09:22:23 PM 41.1036 -115.4964 248° West 400 460 36,000  Level Salt Lake Center
Sun 09:23:25 PM 41.0581 -115.6503 249° West 402 463 36,000  Level Salt Lake Center
Sun 09:24:26 PM 41.0181 -115.7819 248° West 402 463 36,000  Level Salt Lake Center
Sun 09:25:27 PM 40.9714 -115.9350 248° West 401 461 36,000  Level Salt Lake Center
Sun 09:26:29 PM 40.9314 -116.0669 248° West 404 465 36,000  Level Salt Lake Center
Sun 09:27:30 PM 40.8906 -116.2000 248° West 406 467 36,000  Level Salt Lake Center
Sun 09:28:32 PM 40.8414 -116.3575 248° West 414 476 36,000  Level Salt Lake Center
Sun 09:29:33 PM 40.7997 -116.4908 248° West 413 475 36,000  Level Salt Lake Center
Sun 09:30:35 PM 40.7522 -116.6478 248° West 414 476 36,000  Level Salt Lake Center
Sun 09:31:36 PM 40.7106 -116.7806 248° West 412 474 36,000  Level Salt Lake Center
Sun 09:32:38 PM 40.6608 -116.9344 247° West 412 474 36,000  Level Salt Lake Center
Sun 09:33:39 PM 40.6197 -117.0661 248° West 411 473 36,000  Level Salt Lake Center
Sun 09:34:40 PM 40.5703 -117.2192 247° West 411 473 36,000  Level Salt Lake Center
Sun 09:35:42 PM 40.5283 -117.3506 247° West 410 472 36,000  Level Salt Lake Center
Sun 09:36:43 PM 40.4858 -117.4811 247° West 408 470 36,000  Level Salt Lake Center
Sun 09:37:45 PM 40.4369 -117.6339 247° West 407 468 36,000  Level Salt Lake Center
Sun 09:38:46 PM 40.3939 -117.7642 247° West 407 468 36,000  Level Salt Lake Center
Sun 09:39:54 PM 40.3456 -117.9172 248° West 410 472 36,000  Level Oakland Center
Sun 09:40:56 PM 40.2939 -118.0736 247° West 408 470 36,000 -439 Level Oakland Center
Sun 09:41:57 PM 40.2489 -118.2111 247° West 412 474 35,100 -2,115 Descending Oakland Center
Sun 09:42:58 PM 40.2000 -118.3533 246° West 428 493 31,700 -2,557 Descending Oakland Center
Sun 09:43:59 PM 40.1522 -118.4981 247° West 434 499 29,900 -1,268 Descending Oakland Center
Sun 09:45:01 PM 40.1111 -118.6486 250° West 444 511 29,100 -2,098 Descending Oakland Center
Sun 09:46:02 PM 40.0842 -118.7992 257° West 431 496 25,600 -3,197 Descending Oakland Center
Sun 09:47:03 PM 40.0547 -118.9439 255° West 417 480 22,600 -2,557 Descending Oakland Center
Sun 09:48:04 PM 40.0281 -119.0786 256° West 389 448 20,400 -2,976 Descending Oakland Center
Sun 09:49:06 PM 39.9964 -119.2314 255° West 369 425 16,500 -2,537 Descending Oakland Center
Sun 09:50:07 PM 39.9653 -119.3578 252° West 367 422 15,200 -1,672 Descending Oakland Center
Sun 09:51:08 PM 39.9208 -119.4719 243° Southwest 358 412 13,100 -2,115 Descending Oakland Center
Sun 09:52:09 PM 39.8778 -119.5819 243° Southwest 347 399 10,900 -1,721 Descending Oakland Center
Sun 09:53:10 PM 39.8172 -119.6575 224° Southwest 310 357 9,600 -1,073 Descending Oakland Center
Sun 09:54:12 PM 39.7597 -119.7131 217° Southwest 293 337 8,700 -870 Descending Oakland Center
Sun 09:56:30 PM 39.6333 -119.7667 198° South 184 212 6,700 -875 Descending Northern Cal TRACON
Sun 09:57:24 PM 39.5833 -119.7667 180° South 173 199 5,900 -895 Descending Northern Cal TRACON
Sun 09:58:24 PM 39.5333 -119.7667 180° South 157 181 5,000 -900 Descending Northern Cal TRACON

Login

Don't have an account? Register now (free) for customized features, flight alerts, and more!